sensor_id;sensor_type;location;lat;lon;timestamp;P1;durP1;ratioP1;P2;durP2;ratioP2
18383;SDS011;9318;48.644;9.456;2022-11-25T00:01:59;19.60;;;9.20;;
18383;SDS011;9318;48.644;9.456;2022-11-25T00:04:26;24.53;;;9.17;;
18383;SDS011;9318;48.644;9.456;2022-11-25T00:06:58;20.30;;;9.03;;
18383;SDS011;9318;48.644;9.456;2022-11-25T00:09:25;24.87;;;9.63;;
18383;SDS011;9318;48.644;9.456;2022-11-25T00:11:53;26.20;;;9.87;;
18383;SDS011;9318;48.644;9.456;2022-11-25T00:14:20;23.03;;;9.97;;
18383;SDS011;9318;48.644;9.456;2022-11-25T00:16:48;21.40;;;9.30;;
18383;SDS011;9318;48.644;9.456;2022-11-25T00:19:15;18.30;;;8.77;;
18383;SDS011;9318;48.644;9.456;2022-11-25T00:21:42;19.57;;;8.87;;
18383;SDS011;9318;48.644;9.456;2022-11-25T00:24:09;24.23;;;9.37;;
18383;SDS011;9318;48.644;9.456;2022-11-25T00:26:39;22.07;;;9.90;;
18383;SDS011;9318;48.644;9.456;2022-11-25T00:29:09;20.80;;;8.83;;
18383;SDS011;9318;48.644;9.456;2022-11-25T00:31:38;22.23;;;10.00;;
18383;SDS011;9318;48.644;9.456;2022-11-25T00:34:05;22.10;;;9.63;;
18383;SDS011;9318;48.644;9.456;2022-11-25T00:36:36;21.47;;;8.83;;
18383;SDS011;9318;48.644;9.456;2022-11-25T00:39:04;23.00;;;10.40;;
18383;SDS011;9318;48.644;9.456;2022-11-25T00:41:32;20.73;;;9.80;;
18383;SDS011;9318;48.644;9.456;2022-11-25T00:44:18;23.53;;;9.80;;
18383;SDS011;9318;48.644;9.456;2022-11-25T00:47:01;18.83;;;8.70;;
18383;SDS011;9318;48.644;9.456;2022-11-25T00:49:28;18.27;;;8.70;;
18383;SDS011;9318;48.644;9.456;2022-11-25T00:51:56;18.93;;;8.70;;
18383;SDS011;9318;48.644;9.456;2022-11-25T00:54:23;21.23;;;8.80;;
18383;SDS011;9318;48.644;9.456;2022-11-25T00:56:50;24.10;;;9.27;;
18383;SDS011;9318;48.644;9.456;2022-11-25T00:59:19;22.67;;;9.33;;
18383;SDS011;9318;48.644;9.456;2022-11-25T01:01:46;20.43;;;8.53;;
18383;SDS011;9318;48.644;9.456;2022-11-25T01:04:13;22.53;;;9.43;;
18383;SDS011;9318;48.644;9.456;2022-11-25T01:06:41;19.00;;;8.37;;
18383;SDS011;9318;48.644;9.456;2022-11-25T01:09:09;21.23;;;8.53;;
18383;SDS011;9318;48.644;9.456;2022-11-25T01:11:37;19.43;;;8.13;;
18383;SDS011;9318;48.644;9.456;2022-11-25T01:14:05;19.97;;;8.60;;
18383;SDS011;9318;48.644;9.456;2022-11-25T01:16:34;18.87;;;8.43;;
18383;SDS011;9318;48.644;9.456;2022-11-25T01:19:02;20.97;;;9.00;;
18383;SDS011;9318;48.644;9.456;2022-11-25T01:21:30;22.57;;;9.20;;
18383;SDS011;9318;48.644;9.456;2022-11-25T01:23:58;26.10;;;10.17;;
18383;SDS011;9318;48.644;9.456;2022-11-25T01:26:26;23.77;;;9.97;;
18383;SDS011;9318;48.644;9.456;2022-11-25T01:28:54;21.23;;;9.43;;
18383;SDS011;9318;48.644;9.456;2022-11-25T01:31:23;23.50;;;10.13;;
18383;SDS011;9318;48.644;9.456;2022-11-25T01:33:54;23.13;;;9.80;;
18383;SDS011;9318;48.644;9.456;2022-11-25T01:36:23;21.73;;;10.40;;
18383;SDS011;9318;48.644;9.456;2022-11-25T01:38:51;24.37;;;10.50;;
18383;SDS011;9318;48.644;9.456;2022-11-25T01:41:19;21.50;;;10.13;;
18383;SDS011;9318;48.644;9.456;2022-11-25T01:44:03;24.90;;;10.57;;
18383;SDS011;9318;48.644;9.456;2022-11-25T01:46:46;23.33;;;10.33;;
18383;SDS011;9318;48.644;9.456;2022-11-25T01:49:20;22.47;;;9.73;;
18383;SDS011;9318;48.644;9.456;2022-11-25T01:51:53;20.63;;;9.13;;
18383;SDS011;9318;48.644;9.456;2022-11-25T01:54:27;18.43;;;7.60;;
18383;SDS011;9318;48.644;9.456;2022-11-25T01:57:00;20.07;;;7.77;;
18383;SDS011;9318;48.644;9.456;2022-11-25T01:59:30;20.87;;;8.13;;
18383;SDS011;9318;48.644;9.456;2022-11-25T02:01:59;22.10;;;7.63;;
18383;SDS011;9318;48.644;9.456;2022-11-25T02:04:30;18.80;;;8.70;;
18383;SDS011;9318;48.644;9.456;2022-11-25T02:07:02;19.90;;;8.67;;
18383;SDS011;9318;48.644;9.456;2022-11-25T02:09:34;17.97;;;8.23;;
18383;SDS011;9318;48.644;9.456;2022-11-25T02:12:04;20.00;;;8.80;;
18383;SDS011;9318;48.644;9.456;2022-11-25T02:14:32;20.03;;;8.97;;
18383;SDS011;9318;48.644;9.456;2022-11-25T02:17:00;18.23;;;8.80;;
18383;SDS011;9318;48.644;9.456;2022-11-25T02:19:31;17.97;;;8.80;;
18383;SDS011;9318;48.644;9.456;2022-11-25T02:22:14;18.73;;;8.73;;
18383;SDS011;9318;48.644;9.456;2022-11-25T02:24:50;19.00;;;8.43;;
18383;SDS011;9318;48.644;9.456;2022-11-25T02:27:24;19.17;;;8.03;;
18383;SDS011;9318;48.644;9.456;2022-11-25T02:29:52;18.47;;;8.07;;
18383;SDS011;9318;48.644;9.456;2022-11-25T02:32:20;15.80;;;7.13;;
18383;SDS011;9318;48.644;9.456;2022-11-25T02:34:48;17.67;;;7.53;;
18383;SDS011;9318;48.644;9.456;2022-11-25T02:37:16;18.50;;;8.17;;
18383;SDS011;9318;48.644;9.456;2022-11-25T02:39:46;16.60;;;7.50;;
18383;SDS011;9318;48.644;9.456;2022-11-25T02:42:15;19.30;;;7.20;;
18383;SDS011;9318;48.644;9.456;2022-11-25T02:44:47;15.87;;;7.77;;
18383;SDS011;9318;48.644;9.456;2022-11-25T02:47:15;16.50;;;8.03;;
18383;SDS011;9318;48.644;9.456;2022-11-25T02:49:42;15.37;;;7.20;;
18383;SDS011;9318;48.644;9.456;2022-11-25T02:52:09;17.73;;;7.60;;
18383;SDS011;9318;48.644;9.456;2022-11-25T02:54:37;17.30;;;7.83;;
18383;SDS011;9318;48.644;9.456;2022-11-25T02:57:04;18.23;;;7.47;;
18383;SDS011;9318;48.644;9.456;2022-11-25T02:59:31;16.73;;;8.13;;
18383;SDS011;9318;48.644;9.456;2022-11-25T03:02:00;15.80;;;7.73;;
18383;SDS011;9318;48.644;9.456;2022-11-25T03:04:27;19.87;;;8.10;;
18383;SDS011;9318;48.644;9.456;2022-11-25T03:06:54;15.47;;;7.60;;
18383;SDS011;9318;48.644;9.456;2022-11-25T03:09:21;17.60;;;7.70;;
18383;SDS011;9318;48.644;9.456;2022-11-25T03:11:48;17.37;;;8.00;;
18383;SDS011;9318;48.644;9.456;2022-11-25T03:14:32;20.87;;;8.83;;
18383;SDS011;9318;48.644;9.456;2022-11-25T03:17:01;19.53;;;8.60;;
18383;SDS011;9318;48.644;9.456;2022-11-25T03:19:28;18.87;;;8.07;;
18383;SDS011;9318;48.644;9.456;2022-11-25T03:21:55;18.40;;;8.37;;
18383;SDS011;9318;48.644;9.456;2022-11-25T03:24:22;19.13;;;8.20;;
18383;SDS011;9318;48.644;9.456;2022-11-25T03:26:49;22.03;;;9.40;;
18383;SDS011;9318;48.644;9.456;2022-11-25T03:29:31;19.40;;;7.97;;
18383;SDS011;9318;48.644;9.456;2022-11-25T03:31:58;19.90;;;8.70;;
18383;SDS011;9318;48.644;9.456;2022-11-25T03:34:27;23.17;;;9.50;;
18383;SDS011;9318;48.644;9.456;2022-11-25T03:36:54;22.10;;;9.17;;
18383;SDS011;9318;48.644;9.456;2022-11-25T03:39:21;20.80;;;9.00;;
18383;SDS011;9318;48.644;9.456;2022-11-25T03:41:49;17.20;;;8.90;;
18383;SDS011;9318;48.644;9.456;2022-11-25T03:44:16;19.13;;;8.63;;
18383;SDS011;9318;48.644;9.456;2022-11-25T03:46:43;18.83;;;8.53;;
18383;SDS011;9318;48.644;9.456;2022-11-25T03:49:11;22.03;;;8.33;;
18383;SDS011;9318;48.644;9.456;2022-11-25T03:51:38;20.80;;;9.07;;
18383;SDS011;9318;48.644;9.456;2022-11-25T03:54:06;22.00;;;9.57;;
18383;SDS011;9318;48.644;9.456;2022-11-25T03:56:34;19.40;;;8.40;;
18383;SDS011;9318;48.644;9.456;2022-11-25T03:59:01;20.80;;;8.83;;
18383;SDS011;9318;48.644;9.456;2022-11-25T04:01:28;18.97;;;7.43;;
18383;SDS011;9318;48.644;9.456;2022-11-25T04:03:55;14.33;;;7.00;;
18383;SDS011;9318;48.644;9.456;2022-11-25T04:06:24;18.83;;;8.17;;
18383;SDS011;9318;48.644;9.456;2022-11-25T04:08:50;17.90;;;8.17;;
18383;SDS011;9318;48.644;9.456;2022-11-25T04:11:17;16.20;;;7.50;;
18383;SDS011;9318;48.644;9.456;2022-11-25T04:13:44;17.47;;;7.67;;
18383;SDS011;9318;48.644;9.456;2022-11-25T04:16:15;16.33;;;7.90;;
18383;SDS011;9318;48.644;9.456;2022-11-25T04:18:48;13.20;;;7.23;;
18383;SDS011;9318;48.644;9.456;2022-11-25T04:21:15;21.10;;;7.97;;
18383;SDS011;9318;48.644;9.456;2022-11-25T04:23:43;15.80;;;7.60;;
18383;SDS011;9318;48.644;9.456;2022-11-25T04:26:10;15.20;;;7.90;;
18383;SDS011;9318;48.644;9.456;2022-11-25T04:28:37;18.13;;;7.83;;
18383;SDS011;9318;48.644;9.456;2022-11-25T04:31:05;18.97;;;7.90;;
18383;SDS011;9318;48.644;9.456;2022-11-25T04:33:33;17.30;;;7.90;;
18383;SDS011;9318;48.644;9.456;2022-11-25T04:36:01;14.57;;;7.40;;
18383;SDS011;9318;48.644;9.456;2022-11-25T04:38:28;19.47;;;8.00;;
18383;SDS011;9318;48.644;9.456;2022-11-25T04:40:56;14.30;;;7.20;;
18383;SDS011;9318;48.644;9.456;2022-11-25T04:43:23;16.67;;;7.50;;
18383;SDS011;9318;48.644;9.456;2022-11-25T04:45:50;15.20;;;7.17;;
18383;SDS011;9318;48.644;9.456;2022-11-25T04:48:18;20.00;;;7.73;;
18383;SDS011;9318;48.644;9.456;2022-11-25T04:50:45;17.03;;;7.77;;
18383;SDS011;9318;48.644;9.456;2022-11-25T04:53:12;17.10;;;8.07;;
18383;SDS011;9318;48.644;9.456;2022-11-25T04:55:39;16.80;;;7.83;;
18383;SDS011;9318;48.644;9.456;2022-11-25T04:58:09;14.43;;;7.20;;
18383;SDS011;9318;48.644;9.456;2022-11-25T05:00:36;17.73;;;7.27;;
18383;SDS011;9318;48.644;9.456;2022-11-25T05:03:03;17.03;;;7.30;;
18383;SDS011;9318;48.644;9.456;2022-11-25T05:05:30;17.57;;;7.40;;
18383;SDS011;9318;48.644;9.456;2022-11-25T05:07:57;17.90;;;8.23;;
18383;SDS011;9318;48.644;9.456;2022-11-25T05:10:24;13.37;;;6.90;;
18383;SDS011;9318;48.644;9.456;2022-11-25T05:12:52;14.77;;;7.73;;
18383;SDS011;9318;48.644;9.456;2022-11-25T05:15:20;14.00;;;7.53;;
18383;SDS011;9318;48.644;9.456;2022-11-25T05:17:47;16.43;;;7.83;;
18383;SDS011;9318;48.644;9.456;2022-11-25T05:20:15;15.43;;;7.63;;
18383;SDS011;9318;48.644;9.456;2022-11-25T05:22:42;15.97;;;7.77;;
18383;SDS011;9318;48.644;9.456;2022-11-25T05:25:09;17.90;;;8.03;;
18383;SDS011;9318;48.644;9.456;2022-11-25T05:27:36;15.67;;;8.07;;
18383;SDS011;9318;48.644;9.456;2022-11-25T05:30:04;16.90;;;8.37;;
18383;SDS011;9318;48.644;9.456;2022-11-25T05:32:34;19.00;;;7.77;;
18383;SDS011;9318;48.644;9.456;2022-11-25T05:35:01;18.43;;;8.70;;
18383;SDS011;9318;48.644;9.456;2022-11-25T05:37:28;19.47;;;8.07;;
18383;SDS011;9318;48.644;9.456;2022-11-25T05:39:55;17.10;;;8.10;;
18383;SDS011;9318;48.644;9.456;2022-11-25T05:42:22;18.43;;;7.80;;
18383;SDS011;9318;48.644;9.456;2022-11-25T05:44:49;20.33;;;8.10;;
18383;SDS011;9318;48.644;9.456;2022-11-25T05:47:17;17.60;;;7.93;;
18383;SDS011;9318;48.644;9.456;2022-11-25T05:49:45;16.50;;;7.63;;
18383;SDS011;9318;48.644;9.456;2022-11-25T05:52:12;17.53;;;8.20;;
18383;SDS011;9318;48.644;9.456;2022-11-25T05:54:40;18.10;;;8.90;;
18383;SDS011;9318;48.644;9.456;2022-11-25T05:57:07;20.30;;;8.53;;
18383;SDS011;9318;48.644;9.456;2022-11-25T05:59:34;19.83;;;8.93;;
18383;SDS011;9318;48.644;9.456;2022-11-25T06:02:01;19.23;;;9.13;;
18383;SDS011;9318;48.644;9.456;2022-11-25T06:04:29;25.63;;;11.97;;
18383;SDS011;9318;48.644;9.456;2022-11-25T06:06:57;23.23;;;11.20;;
18383;SDS011;9318;48.644;9.456;2022-11-25T06:09:24;23.07;;;11.43;;
18383;SDS011;9318;48.644;9.456;2022-11-25T06:11:52;22.13;;;10.53;;
18383;SDS011;9318;48.644;9.456;2022-11-25T06:14:19;17.47;;;8.90;;
18383;SDS011;9318;48.644;9.456;2022-11-25T06:16:46;20.63;;;9.27;;
18383;SDS011;9318;48.644;9.456;2022-11-25T06:19:13;22.37;;;9.00;;
18383;SDS011;9318;48.644;9.456;2022-11-25T06:21:40;22.07;;;9.50;;
18383;SDS011;9318;48.644;9.456;2022-11-25T06:24:09;24.97;;;11.77;;
18383;SDS011;9318;48.644;9.456;2022-11-25T06:26:36;19.83;;;9.67;;
18383;SDS011;9318;48.644;9.456;2022-11-25T06:29:03;22.17;;;9.33;;
18383;SDS011;9318;48.644;9.456;2022-11-25T06:31:30;17.67;;;9.17;;
18383;SDS011;9318;48.644;9.456;2022-11-25T06:33:57;19.33;;;9.43;;
18383;SDS011;9318;48.644;9.456;2022-11-25T06:36:25;19.67;;;9.83;;
18383;SDS011;9318;48.644;9.456;2022-11-25T06:38:52;20.00;;;9.50;;
18383;SDS011;9318;48.644;9.456;2022-11-25T06:41:21;19.77;;;9.33;;
18383;SDS011;9318;48.644;9.456;2022-11-25T06:43:51;21.50;;;9.23;;
18383;SDS011;9318;48.644;9.456;2022-11-25T06:46:18;18.97;;;8.80;;
18383;SDS011;9318;48.644;9.456;2022-11-25T06:48:46;17.83;;;8.30;;
18383;SDS011;9318;48.644;9.456;2022-11-25T06:51:14;16.83;;;7.97;;
18383;SDS011;9318;48.644;9.456;2022-11-25T06:53:42;18.00;;;8.20;;
18383;SDS011;9318;48.644;9.456;2022-11-25T06:56:10;16.40;;;8.00;;
18383;SDS011;9318;48.644;9.456;2022-11-25T06:58:40;18.17;;;7.90;;
18383;SDS011;9318;48.644;9.456;2022-11-25T07:01:10;17.83;;;8.10;;
18383;SDS011;9318;48.644;9.456;2022-11-25T07:03:39;15.40;;;7.83;;
18383;SDS011;9318;48.644;9.456;2022-11-25T07:06:07;17.47;;;8.20;;
18383;SDS011;9318;48.644;9.456;2022-11-25T07:08:34;15.50;;;7.33;;
18383;SDS011;9318;48.644;9.456;2022-11-25T07:11:01;15.00;;;7.33;;
18383;SDS011;9318;48.644;9.456;2022-11-25T07:13:30;19.80;;;8.83;;
18383;SDS011;9318;48.644;9.456;2022-11-25T07:16:00;24.27;;;11.37;;
18383;SDS011;9318;48.644;9.456;2022-11-25T07:18:29;22.07;;;9.90;;
18383;SDS011;9318;48.644;9.456;2022-11-25T07:21:00;19.17;;;9.43;;
18383;SDS011;9318;48.644;9.456;2022-11-25T07:23:29;21.10;;;9.93;;
18383;SDS011;9318;48.644;9.456;2022-11-25T07:26:00;21.77;;;10.40;;
18383;SDS011;9318;48.644;9.456;2022-11-25T07:28:27;20.40;;;9.67;;
18383;SDS011;9318;48.644;9.456;2022-11-25T07:30:55;21.10;;;9.87;;
18383;SDS011;9318;48.644;9.456;2022-11-25T07:33:30;19.30;;;8.60;;
18383;SDS011;9318;48.644;9.456;2022-11-25T07:36:00;19.93;;;9.13;;
18383;SDS011;9318;48.644;9.456;2022-11-25T07:38:27;20.03;;;9.07;;
18383;SDS011;9318;48.644;9.456;2022-11-25T07:40:54;21.33;;;9.57;;
18383;SDS011;9318;48.644;9.456;2022-11-25T07:43:21;22.90;;;10.40;;
18383;SDS011;9318;48.644;9.456;2022-11-25T07:45:49;18.87;;;9.60;;
18383;SDS011;9318;48.644;9.456;2022-11-25T07:48:16;23.97;;;10.70;;
18383;SDS011;9318;48.644;9.456;2022-11-25T07:50:44;19.20;;;9.23;;
18383;SDS011;9318;48.644;9.456;2022-11-25T07:53:14;20.80;;;8.93;;
18383;SDS011;9318;48.644;9.456;2022-11-25T07:55:41;19.43;;;9.53;;
18383;SDS011;9318;48.644;9.456;2022-11-25T07:58:09;21.43;;;10.20;;
18383;SDS011;9318;48.644;9.456;2022-11-25T08:00:36;24.73;;;10.20;;
18383;SDS011;9318;48.644;9.456;2022-11-25T08:03:03;22.27;;;10.80;;
18383;SDS011;9318;48.644;9.456;2022-11-25T08:05:31;24.03;;;9.87;;
18383;SDS011;9318;48.644;9.456;2022-11-25T08:08:00;21.73;;;9.33;;
18383;SDS011;9318;48.644;9.456;2022-11-25T08:10:27;20.10;;;9.17;;
18383;SDS011;9318;48.644;9.456;2022-11-25T08:12:55;21.13;;;9.33;;
18383;SDS011;9318;48.644;9.456;2022-11-25T08:15:22;20.90;;;9.40;;
18383;SDS011;9318;48.644;9.456;2022-11-25T08:17:49;20.23;;;9.30;;
18383;SDS011;9318;48.644;9.456;2022-11-25T08:20:16;17.90;;;8.93;;
18383;SDS011;9318;48.644;9.456;2022-11-25T08:22:44;19.57;;;9.13;;
18383;SDS011;9318;48.644;9.456;2022-11-25T08:25:12;21.47;;;9.23;;
18383;SDS011;9318;48.644;9.456;2022-11-25T08:27:40;19.60;;;9.73;;
18383;SDS011;9318;48.644;9.456;2022-11-25T08:30:07;19.93;;;9.73;;
18383;SDS011;9318;48.644;9.456;2022-11-25T08:32:36;20.10;;;9.77;;
18383;SDS011;9318;48.644;9.456;2022-11-25T08:35:03;22.63;;;9.53;;
18383;SDS011;9318;48.644;9.456;2022-11-25T08:37:31;25.17;;;10.07;;
18383;SDS011;9318;48.644;9.456;2022-11-25T08:39:58;22.53;;;9.37;;
18383;SDS011;9318;48.644;9.456;2022-11-25T08:42:27;24.73;;;10.83;;
18383;SDS011;9318;48.644;9.456;2022-11-25T08:44:54;38.30;;;14.03;;
18383;SDS011;9318;48.644;9.456;2022-11-25T08:47:22;46.43;;;16.87;;
18383;SDS011;9318;48.644;9.456;2022-11-25T08:49:50;106.53;;;32.60;;
18383;SDS011;9318;48.644;9.456;2022-11-25T08:52:17;55.77;;;22.73;;
18383;SDS011;9318;48.644;9.456;2022-11-25T08:54:45;48.50;;;16.43;;
18383;SDS011;9318;48.644;9.456;2022-11-25T08:57:12;34.87;;;13.47;;
18383;SDS011;9318;48.644;9.456;2022-11-25T08:59:41;26.63;;;11.23;;
18383;SDS011;9318;48.644;9.456;2022-11-25T09:02:10;31.83;;;12.10;;
18383;SDS011;9318;48.644;9.456;2022-11-25T09:04:40;22.67;;;10.73;;
18383;SDS011;9318;48.644;9.456;2022-11-25T09:07:07;27.97;;;10.97;;
18383;SDS011;9318;48.644;9.456;2022-11-25T09:09:35;28.63;;;11.33;;
18383;SDS011;9318;48.644;9.456;2022-11-25T09:12:02;38.00;;;13.87;;
18383;SDS011;9318;48.644;9.456;2022-11-25T09:14:30;23.83;;;9.83;;
18383;SDS011;9318;48.644;9.456;2022-11-25T09:16:58;26.40;;;10.50;;
18383;SDS011;9318;48.644;9.456;2022-11-25T09:19:26;22.83;;;10.13;;
18383;SDS011;9318;48.644;9.456;2022-11-25T09:21:53;23.60;;;9.90;;
18383;SDS011;9318;48.644;9.456;2022-11-25T09:24:20;21.60;;;10.03;;
18383;SDS011;9318;48.644;9.456;2022-11-25T09:26:48;24.87;;;10.90;;
18383;SDS011;9318;48.644;9.456;2022-11-25T09:29:15;23.37;;;10.80;;
18383;SDS011;9318;48.644;9.456;2022-11-25T09:31:42;20.47;;;9.77;;
18383;SDS011;9318;48.644;9.456;2022-11-25T09:34:11;24.67;;;10.90;;
18383;SDS011;9318;48.644;9.456;2022-11-25T09:36:38;21.63;;;10.07;;
18383;SDS011;9318;48.644;9.456;2022-11-25T09:39:05;29.47;;;10.67;;
18383;SDS011;9318;48.644;9.456;2022-11-25T09:41:37;24.23;;;10.33;;
18383;SDS011;9318;48.644;9.456;2022-11-25T09:44:38;23.00;;;10.47;;
18383;SDS011;9318;48.644;9.456;2022-11-25T09:47:30;22.20;;;10.53;;
18383;SDS011;9318;48.644;9.456;2022-11-25T09:50:11;24.10;;;10.63;;
18383;SDS011;9318;48.644;9.456;2022-11-25T09:52:47;20.90;;;9.70;;
18383;SDS011;9318;48.644;9.456;2022-11-25T09:55:22;21.70;;;10.03;;
18383;SDS011;9318;48.644;9.456;2022-11-25T09:57:54;19.17;;;8.43;;
18383;SDS011;9318;48.644;9.456;2022-11-25T10:00:29;16.43;;;8.10;;
18383;SDS011;9318;48.644;9.456;2022-11-25T10:03:03;21.70;;;8.50;;
18383;SDS011;9318;48.644;9.456;2022-11-25T10:05:40;17.47;;;8.67;;
18383;SDS011;9318;48.644;9.456;2022-11-25T10:08:10;17.47;;;8.37;;
18383;SDS011;9318;48.644;9.456;2022-11-25T10:10:42;17.83;;;8.10;;
18383;SDS011;9318;48.644;9.456;2022-11-25T10:13:14;20.93;;;8.33;;
18383;SDS011;9318;48.644;9.456;2022-11-25T10:15:46;17.00;;;7.97;;
18383;SDS011;9318;48.644;9.456;2022-11-25T10:18:17;15.20;;;7.67;;
18383;SDS011;9318;48.644;9.456;2022-11-25T10:20:50;17.87;;;7.60;;
18383;SDS011;9318;48.644;9.456;2022-11-25T10:23:20;16.73;;;7.57;;
18383;SDS011;9318;48.644;9.456;2022-11-25T10:25:49;17.70;;;7.70;;
18383;SDS011;9318;48.644;9.456;2022-11-25T10:28:21;15.80;;;7.57;;
18383;SDS011;9318;48.644;9.456;2022-11-25T10:30:50;15.53;;;7.60;;
18383;SDS011;9318;48.644;9.456;2022-11-25T10:33:25;20.87;;;7.90;;
18383;SDS011;9318;48.644;9.456;2022-11-25T10:35:57;17.87;;;8.20;;
18383;SDS011;9318;48.644;9.456;2022-11-25T10:38:36;17.80;;;8.20;;
18383;SDS011;9318;48.644;9.456;2022-11-25T10:41:08;16.37;;;8.23;;
18383;SDS011;9318;48.644;9.456;2022-11-25T10:43:51;19.73;;;8.90;;
18383;SDS011;9318;48.644;9.456;2022-11-25T10:46:21;18.83;;;8.67;;
18383;SDS011;9318;48.644;9.456;2022-11-25T10:48:58;20.53;;;8.43;;
18383;SDS011;9318;48.644;9.456;2022-11-25T10:51:31;18.33;;;7.23;;
18383;SDS011;9318;48.644;9.456;2022-11-25T10:54:12;17.07;;;7.03;;
18383;SDS011;9318;48.644;9.456;2022-11-25T10:56:44;12.37;;;6.47;;
18383;SDS011;9318;48.644;9.456;2022-11-25T10:59:23;17.67;;;7.17;;
18383;SDS011;9318;48.644;9.456;2022-11-25T11:01:52;16.13;;;7.10;;
18383;SDS011;9318;48.644;9.456;2022-11-25T11:04:32;16.33;;;7.20;;
18383;SDS011;9318;48.644;9.456;2022-11-25T11:07:06;17.17;;;6.93;;
18383;SDS011;9318;48.644;9.456;2022-11-25T11:09:35;21.00;;;7.70;;
18383;SDS011;9318;48.644;9.456;2022-11-25T11:12:06;16.03;;;7.47;;
18383;SDS011;9318;48.644;9.456;2022-11-25T11:14:40;18.50;;;7.57;;
18383;SDS011;9318;48.644;9.456;2022-11-25T11:17:19;16.87;;;7.80;;
18383;SDS011;9318;48.644;9.456;2022-11-25T11:20:02;19.63;;;8.17;;
18383;SDS011;9318;48.644;9.456;2022-11-25T11:22:48;13.83;;;6.60;;
18383;SDS011;9318;48.644;9.456;2022-11-25T11:25:26;15.80;;;6.90;;
18383;SDS011;9318;48.644;9.456;2022-11-25T11:27:58;18.90;;;7.20;;
18383;SDS011;9318;48.644;9.456;2022-11-25T11:30:26;15.03;;;6.73;;
18383;SDS011;9318;48.644;9.456;2022-11-25T11:33:05;15.63;;;6.70;;
18383;SDS011;9318;48.644;9.456;2022-11-25T11:35:53;14.17;;;6.43;;
18383;SDS011;9318;48.644;9.456;2022-11-25T11:38:33;15.83;;;6.60;;
18383;SDS011;9318;48.644;9.456;2022-11-25T11:41:09;12.70;;;5.53;;
18383;SDS011;9318;48.644;9.456;2022-11-25T11:49:35;9.00;;;4.30;;
18383;SDS011;9318;48.644;9.456;2022-11-25T11:52:18;12.27;;;4.50;;
18383;SDS011;9318;48.644;9.456;2022-11-25T11:54:57;12.93;;;4.60;;
18383;SDS011;9318;48.644;9.456;2022-11-25T11:57:36;12.23;;;4.60;;
18383;SDS011;9318;48.644;9.456;2022-11-25T12:00:11;9.47;;;4.50;;
18383;SDS011;9318;48.644;9.456;2022-11-25T12:02:51;8.67;;;4.20;;
18383;SDS011;9318;48.644;9.456;2022-11-25T12:05:25;9.63;;;4.57;;
18383;SDS011;9318;48.644;9.456;2022-11-25T12:07:58;9.07;;;4.70;;
18383;SDS011;9318;48.644;9.456;2022-11-25T12:10:35;9.80;;;4.50;;
18383;SDS011;9318;48.644;9.456;2022-11-25T12:13:07;10.03;;;4.20;;
18383;SDS011;9318;48.644;9.456;2022-11-25T12:15:42;10.43;;;4.70;;
18383;SDS011;9318;48.644;9.456;2022-11-25T12:18:18;13.30;;;4.67;;
18383;SDS011;9318;48.644;9.456;2022-11-25T12:20:54;9.10;;;4.40;;
18383;SDS011;9318;48.644;9.456;2022-11-25T12:23:28;9.30;;;4.43;;
18383;SDS011;9318;48.644;9.456;2022-11-25T12:26:08;10.77;;;5.17;;
18383;SDS011;9318;48.644;9.456;2022-11-25T12:28:41;13.60;;;5.73;;
18383;SDS011;9318;48.644;9.456;2022-11-25T12:31:12;15.03;;;5.60;;
18383;SDS011;9318;48.644;9.456;2022-11-25T12:33:48;14.80;;;5.67;;
18383;SDS011;9318;48.644;9.456;2022-11-25T12:36:25;12.70;;;5.50;;
18383;SDS011;9318;48.644;9.456;2022-11-25T12:38:59;12.23;;;5.87;;
18383;SDS011;9318;48.644;9.456;2022-11-25T12:41:34;14.63;;;5.67;;
18383;SDS011;9318;48.644;9.456;2022-11-25T12:44:07;11.90;;;5.70;;
18383;SDS011;9318;48.644;9.456;2022-11-25T12:46:43;12.33;;;5.00;;
18383;SDS011;9318;48.644;9.456;2022-11-25T12:49:14;12.10;;;5.20;;
18383;SDS011;9318;48.644;9.456;2022-11-25T12:51:49;14.60;;;6.10;;
18383;SDS011;9318;48.644;9.456;2022-11-25T13:00:43;12.17;;;5.57;;
18383;SDS011;9318;48.644;9.456;2022-11-25T13:06:45;11.33;;;5.30;;
18383;SDS011;9318;48.644;9.456;2022-11-25T13:09:37;13.37;;;5.70;;
18383;SDS011;9318;48.644;9.456;2022-11-25T13:12:24;12.80;;;5.43;;
18383;SDS011;9318;48.644;9.456;2022-11-25T13:15:15;14.37;;;5.70;;
18383;SDS011;9318;48.644;9.456;2022-11-25T13:17:53;17.07;;;6.27;;
18383;SDS011;9318;48.644;9.456;2022-11-25T13:23:22;17.03;;;6.10;;
18383;SDS011;9318;48.644;9.456;2022-11-25T13:25:52;14.13;;;6.03;;
18383;SDS011;9318;48.644;9.456;2022-11-25T13:28:39;12.37;;;5.90;;
18383;SDS011;9318;48.644;9.456;2022-11-25T13:31:19;14.80;;;5.57;;
18383;SDS011;9318;48.644;9.456;2022-11-25T13:36:44;13.70;;;6.23;;
18383;SDS011;9318;48.644;9.456;2022-11-25T13:39:13;12.53;;;5.70;;
18383;SDS011;9318;48.644;9.456;2022-11-25T13:41:45;15.50;;;5.70;;
18383;SDS011;9318;48.644;9.456;2022-11-25T13:44:19;11.90;;;5.70;;
18383;SDS011;9318;48.644;9.456;2022-11-25T13:46:51;13.63;;;5.73;;
18383;SDS011;9318;48.644;9.456;2022-11-25T13:52:22;14.70;;;6.03;;
18383;SDS011;9318;48.644;9.456;2022-11-25T13:54:59;16.10;;;6.63;;
18383;SDS011;9318;48.644;9.456;2022-11-25T13:57:31;19.93;;;7.10;;
18383;SDS011;9318;48.644;9.456;2022-11-25T14:00:00;15.60;;;6.40;;
18383;SDS011;9318;48.644;9.456;2022-11-25T14:02:36;15.43;;;7.30;;
18383;SDS011;9318;48.644;9.456;2022-11-25T14:08:19;17.57;;;6.17;;
18383;SDS011;9318;48.644;9.456;2022-11-25T14:10:55;17.20;;;6.47;;
18383;SDS011;9318;48.644;9.456;2022-11-25T14:13:55;16.50;;;6.60;;
18383;SDS011;9318;48.644;9.456;2022-11-25T14:16:52;15.10;;;6.37;;
18383;SDS011;9318;48.644;9.456;2022-11-25T14:22:35;15.43;;;6.60;;
18383;SDS011;9318;48.644;9.456;2022-11-25T14:25:25;15.60;;;6.53;;
18383;SDS011;9318;48.644;9.456;2022-11-25T14:27:57;10.50;;;5.83;;
18383;SDS011;9318;48.644;9.456;2022-11-25T14:30:42;16.30;;;6.30;;
18383;SDS011;9318;48.644;9.456;2022-11-25T14:33:11;13.23;;;6.20;;
18383;SDS011;9318;48.644;9.456;2022-11-25T14:35:45;16.43;;;7.27;;
18383;SDS011;9318;48.644;9.456;2022-11-25T14:38:16;16.97;;;7.13;;
18383;SDS011;9318;48.644;9.456;2022-11-25T14:40:49;15.77;;;7.87;;
18383;SDS011;9318;48.644;9.456;2022-11-25T14:43:19;20.67;;;9.00;;
18383;SDS011;9318;48.644;9.456;2022-11-25T14:45:55;20.03;;;8.50;;
18383;SDS011;9318;48.644;9.456;2022-11-25T14:48:36;22.63;;;9.00;;
18383;SDS011;9318;48.644;9.456;2022-11-25T14:51:05;23.47;;;10.07;;
18383;SDS011;9318;48.644;9.456;2022-11-25T14:53:37;20.27;;;7.93;;
18383;SDS011;9318;48.644;9.456;2022-11-25T14:56:07;17.83;;;7.60;;
18383;SDS011;9318;48.644;9.456;2022-11-25T14:58:38;19.87;;;8.37;;
18383;SDS011;9318;48.644;9.456;2022-11-25T15:01:06;17.50;;;7.60;;
18383;SDS011;9318;48.644;9.456;2022-11-25T15:03:44;21.83;;;8.23;;
18383;SDS011;9318;48.644;9.456;2022-11-25T15:06:14;20.43;;;8.63;;
18383;SDS011;9318;48.644;9.456;2022-11-25T15:08:45;22.77;;;9.57;;
18383;SDS011;9318;48.644;9.456;2022-11-25T15:11:21;32.40;;;10.53;;
18383;SDS011;9318;48.644;9.456;2022-11-25T15:13:52;27.30;;;11.13;;
18383;SDS011;9318;48.644;9.456;2022-11-25T15:16:24;25.57;;;11.10;;
18383;SDS011;9318;48.644;9.456;2022-11-25T15:18:57;31.40;;;13.10;;
18383;SDS011;9318;48.644;9.456;2022-11-25T15:21:28;25.47;;;11.17;;
18383;SDS011;9318;48.644;9.456;2022-11-25T15:23:57;23.00;;;9.37;;
18383;SDS011;9318;48.644;9.456;2022-11-25T15:26:26;21.83;;;9.10;;
18383;SDS011;9318;48.644;9.456;2022-11-25T15:28:55;16.70;;;7.50;;
18383;SDS011;9318;48.644;9.456;2022-11-25T15:31:25;19.37;;;7.90;;
18383;SDS011;9318;48.644;9.456;2022-11-25T15:33:55;16.17;;;6.90;;
18383;SDS011;9318;48.644;9.456;2022-11-25T15:36:24;23.20;;;9.47;;
18383;SDS011;9318;48.644;9.456;2022-11-25T15:38:53;18.70;;;8.17;;